Giannutri — 9HVX7 — position and weather

sailwx.info

Track history (hours):
 
Tides and Currents Weather Stations Pressure Air Temp Water Temp Dewpoint Dewpoint Depression Visibility Wind Speed Wind Dir Waves Ship Positions

Giannutri

Last reported at 2017-Sep-20 01:43 UTC. Time now 2017-Sep-24 20:59 UTC.
Position N 37°54' E 023°05'.

Length 183 m; draft 10.4 m.

Type: Ship (hazmat cat A). MMSI: 215637000.

Date/timePositionNaut miles runAvg speedWind from/ knotsBaromVisibWave heightAir tempDewpointWater temp
2017-Sep-20 01:43N 37°54' E 023°05'411.7
2017-Sep-20 01:22N 37°53' E 023°10'512.6
2017-Sep-20 00:56N 37°52' E 023°17'612.7
2017-Sep-20 00:30N 37°51' E 023°23'1112.4
2017-Sep-19 23:36N 37°51' E 023°38'112.1
2017-Sep-19 23:31N 37°51' E 023°39'612.9
2017-Sep-19 23:00N 37°45' E 023°43'912.8
2017-Sep-19 22:18N 37°36' E 023°47'412.8
2017-Sep-19 22:00N 37°33' E 023°48'613.0
2017-Sep-19 21:31N 37°27' E 023°46'612.8
2017-Sep-19 21:00N 37°20' E 023°46'714.1
2017-Sep-19 20:30N 37°13' E 023°45'1613.9
2017-Sep-19 19:20N 36°58' E 023°38'413.2
2017-Sep-19 19:00N 36°54' E 023°37'612.8
2017-Sep-19 18:30N 36°48' E 023°33'43312.5
2017-Sep-18 07:46N 36°19' E 014°35'413.3
2017-Sep-18 07:30N 36°20' E 014°31'713.5
2017-Sep-18 06:59N 36°22' E 014°23'813.4
2017-Sep-18 06:23N 36°25' E 014°13'56913.0
2017-Sep-16 10:42N 40°33' E 003°20'312.0
2017-Sep-16 10:30N 40°34' E 003°16'612.4
2017-Sep-16 10:00N 40°36' E 003°09'612.9
2017-Sep-16 09:30N 40°38' E 003°01'713.3
2017-Sep-16 09:00N 40°40' E 002°52'713.1
2017-Sep-16 08:30N 40°42' E 002°44'613.2
2017-Sep-16 08:00N 40°44' E 002°36'713.3
2017-Sep-16 07:30N 40°46' E 002°27'713.5
2017-Sep-16 06:59N 40°48' E 002°19'613.2
2017-Sep-16 06:30N 40°50' E 002°10'713.3
2017-Sep-16 05:59N 40°52' E 002°02'  
2017-Sep-13 05:47N 41°05' E 001°15'  
2017-Sep-10 13:33N 40°22' E 001°02'2 9.7
2017-Sep-10 13:22N 40°21' E 001°02'4 9.8
2017-Sep-10 12:58N 40°17' E 001°01'5 9.6
2017-Sep-10 12:29N 40°12' E 000°60'  
Track history (hours):
 
Tides and Currents Weather Stations Pressure Air Temp Water Temp Dewpoint Dewpoint Depression Visibility Wind Speed Wind Dir Waves Ship Positions

Giannutri

Last reported at 2017-Sep-20 01:43 UTC. Time now 2017-Sep-24 20:59 UTC.
Position N 37°54' E 023°05'.

Length 183 m; draft 10.4 m.

Type: Ship (hazmat cat A). MMSI: 215637000.

Date/timePositionNaut miles runAvg speedWind from/ knotsBaromVisibWave heightAir tempDewpointWater temp
2017-Sep-20 01:43N 37°54' E 023°05'411.7
2017-Sep-20 01:22N 37°53' E 023°10'512.6
2017-Sep-20 00:56N 37°52' E 023°17'612.7
2017-Sep-20 00:30N 37°51' E 023°23'1112.4
2017-Sep-19 23:36N 37°51' E 023°38'112.1
2017-Sep-19 23:31N 37°51' E 023°39'612.9
2017-Sep-19 23:00N 37°45' E 023°43'912.8
2017-Sep-19 22:18N 37°36' E 023°47'412.8
2017-Sep-19 22:00N 37°33' E 023°48'613.0
2017-Sep-19 21:31N 37°27' E 023°46'612.8
2017-Sep-19 21:00N 37°20' E 023°46'714.1
2017-Sep-19 20:30N 37°13' E 023°45'1613.9
2017-Sep-19 19:20N 36°58' E 023°38'413.2
2017-Sep-19 19:00N 36°54' E 023°37'612.8
2017-Sep-19 18:30N 36°48' E 023°33'43312.5
2017-Sep-18 07:46N 36°19' E 014°35'413.3
2017-Sep-18 07:30N 36°20' E 014°31'713.5
2017-Sep-18 06:59N 36°22' E 014°23'813.4
2017-Sep-18 06:23N 36°25' E 014°13'56913.0
2017-Sep-16 10:42N 40°33' E 003°20'312.0
2017-Sep-16 10:30N 40°34' E 003°16'612.4
2017-Sep-16 10:00N 40°36' E 003°09'612.9
2017-Sep-16 09:30N 40°38' E 003°01'713.3
2017-Sep-16 09:00N 40°40' E 002°52'713.1
2017-Sep-16 08:30N 40°42' E 002°44'613.2
2017-Sep-16 08:00N 40°44' E 002°36'713.3
2017-Sep-16 07:30N 40°46' E 002°27'713.5
2017-Sep-16 06:59N 40°48' E 002°19'613.2
2017-Sep-16 06:30N 40°50' E 002°10'713.3
2017-Sep-16 05:59N 40°52' E 002°02'  
2017-Sep-13 05:47N 41°05' E 001°15'  
2017-Sep-10 13:33N 40°22' E 001°02'2 9.7
2017-Sep-10 13:22N 40°21' E 001°02'4 9.8
2017-Sep-10 12:58N 40°17' E 001°01'5 9.6
2017-Sep-10 12:29N 40°12' E 000°60'  

Dump ship's entire track history